createdAt,value
2018-02-24T00:00:25.714Z,75.79
2018-02-24T00:02:56.590Z,76.30
2018-02-24T00:05:27.332Z,76.40
2018-02-24T00:07:58.100Z,76.14
2018-02-24T00:10:28.881Z,75.84
2018-02-24T00:12:59.687Z,76.43
2018-02-24T00:15:30.450Z,77.05
2018-02-24T00:18:01.250Z,76.86
2018-02-24T00:20:32.009Z,77.11
2018-02-24T00:23:02.869Z,77.16
2018-02-24T00:25:33.650Z,77.43
2018-02-24T00:28:04.441Z,77.47
2018-02-24T00:30:35.215Z,76.71
2018-02-24T00:33:06.028Z,77.26
2018-02-24T00:35:36.805Z,77.48
2018-02-24T00:38:07.581Z,77.36
2018-02-24T00:40:38.394Z,77.65
2018-02-24T00:43:09.165Z,77.15
2018-02-24T00:45:39.929Z,77.04
2018-02-24T00:48:10.728Z,76.93
2018-02-24T00:50:41.521Z,77.20
2018-02-24T00:53:12.322Z,77.95
2018-02-24T00:55:43.106Z,77.89
2018-02-24T00:58:13.905Z,77.95
2018-02-24T01:00:44.679Z,77.65
2018-02-24T01:03:15.444Z,77.63
2018-02-24T01:05:46.226Z,78.43
2018-02-24T01:08:17.045Z,78.85
2018-02-24T01:10:47.809Z,79.12
2018-02-24T01:13:18.577Z,79.37
2018-02-24T01:15:49.341Z,79.31
2018-02-24T01:18:20.125Z,79.15
2018-02-24T01:20:50.889Z,79.26
2018-02-24T01:23:21.684Z,79.36
2018-02-24T01:25:52.444Z,79.69
2018-02-24T01:28:23.264Z,79.42
2018-02-24T01:30:54.058Z,79.14
2018-02-24T01:33:24.856Z,79.15
2018-02-24T01:35:55.628Z,79.38
2018-02-24T01:38:26.429Z,79.56
2018-02-24T01:40:57.189Z,79.67
2018-02-24T01:43:27.961Z,79.77
2018-02-24T01:45:58.720Z,79.73
2018-02-24T01:48:29.505Z,79.63
2018-02-24T01:51:00.297Z,79.49
2018-02-24T01:53:31.098Z,79.39
2018-02-24T01:56:01.862Z,79.53
2018-02-24T01:58:32.636Z,79.63
2018-02-24T02:01:04.456Z,79.33
2018-02-24T02:03:35.234Z,79.35
2018-02-24T02:06:06.009Z,79.63
2018-02-24T02:08:36.797Z,79.82
2018-02-24T02:11:07.562Z,79.66
2018-02-24T02:13:38.357Z,79.63
2018-02-24T02:16:09.129Z,79.82
2018-02-24T02:18:39.951Z,80.33
2018-02-24T02:21:10.761Z,80.76
2018-02-24T02:23:41.552Z,80.72
2018-02-24T02:26:12.333Z,80.76
2018-02-24T02:28:43.117Z,80.53
2018-02-24T02:31:13.885Z,80.72
2018-02-24T02:33:44.667Z,80.42
2018-02-24T02:36:15.464Z,80.17
2018-02-24T02:38:46.279Z,79.96
2018-02-24T02:41:17.085Z,79.58
2018-02-24T02:43:47.978Z,79.39
2018-02-24T02:46:18.755Z,79.41
2018-02-24T02:48:49.547Z,78.82
2018-02-24T02:51:20.325Z,78.92
2018-02-24T02:53:51.118Z,79.42
2018-02-24T02:56:21.897Z,79.40
2018-02-24T02:58:52.802Z,79.40
2018-02-24T03:01:23.587Z,79.76
2018-02-24T03:04:01.299Z,79.49
2018-02-24T03:06:32.141Z,79.78
2018-02-24T03:09:05.084Z,79.83
2018-02-24T03:11:42.833Z,80.02
2018-02-24T03:14:13.621Z,79.96
2018-02-24T03:16:44.410Z,80.42
2018-02-24T03:19:15.213Z,80.37
2018-02-24T03:21:45.989Z,80.47
2018-02-24T03:24:16.765Z,80.33
2018-02-24T03:26:47.535Z,80.46
2018-02-24T03:29:18.317Z,80.69
2018-02-24T03:31:49.098Z,80.43
2018-02-24T03:34:19.901Z,80.04
2018-02-24T03:36:50.673Z,80.29
2018-02-24T03:39:21.450Z,80.70
2018-02-24T03:41:54.313Z,80.44
2018-02-24T03:44:25.109Z,80.54
2018-02-24T03:46:55.895Z,80.68
2018-02-24T03:49:26.670Z,80.04
2018-02-24T03:51:57.444Z,80.08
2018-02-24T03:54:28.251Z,79.81
2018-02-24T03:56:59.019Z,80.22
2018-02-24T03:59:33.797Z,80.19
2018-02-24T04:02:04.568Z,80.19
2018-02-24T04:04:35.350Z,79.91
2018-02-24T04:07:06.125Z,79.58
2018-02-24T04:09:36.969Z,79.78
2018-02-24T04:12:07.749Z,80.23
2018-02-24T04:14:38.552Z,80.35
2018-02-24T04:17:09.354Z,80.32
2018-02-24T04:19:40.144Z,80.33
2018-02-24T04:22:10.947Z,80.01
2018-02-24T04:24:41.725Z,80.50
2018-02-24T04:27:12.506Z,80.72
2018-02-24T04:29:43.316Z,80.51
2018-02-24T04:32:14.093Z,80.12
2018-02-24T04:34:44.909Z,80.25
2018-02-24T04:37:15.697Z,80.32
2018-02-24T04:39:46.494Z,80.32
2018-02-24T04:42:17.284Z,80.20
2018-02-24T04:44:48.095Z,80.13
2018-02-24T04:47:18.875Z,80.15
2018-02-24T04:49:49.650Z,80.31
2018-02-24T04:52:20.412Z,80.30
2018-02-24T04:54:51.185Z,80.39
2018-02-24T04:57:21.957Z,80.27
2018-02-24T04:59:52.760Z,80.03
2018-02-24T05:02:23.521Z,79.63
2018-02-24T05:04:54.300Z,79.84
2018-02-24T05:07:25.065Z,79.30
2018-02-24T05:09:55.854Z,78.99
2018-02-24T05:12:26.618Z,79.85
2018-02-24T05:14:57.440Z,80.18
2018-02-24T05:17:28.230Z,80.90
2018-02-24T05:19:59.024Z,81.23
2018-02-24T05:22:29.829Z,81.36
2018-02-24T05:25:00.662Z,81.45
2018-02-24T05:27:31.486Z,81.52
2018-02-24T05:30:02.343Z,81.76
2018-02-24T05:32:33.138Z,81.72
2018-02-24T05:35:03.916Z,81.80
2018-02-24T05:37:34.677Z,81.20
2018-02-24T05:40:05.469Z,81.14
2018-02-24T05:42:36.237Z,81.08
2018-02-24T05:45:07.018Z,81.16
2018-02-24T05:47:37.792Z,80.95
2018-02-24T05:50:08.568Z,81.06
2018-02-24T05:52:39.308Z,81.11
2018-02-24T05:55:10.109Z,80.74
2018-02-24T05:57:40.873Z,80.97
2018-02-24T06:00:11.648Z,81.11
2018-02-24T06:02:42.421Z,80.93
2018-02-24T06:05:13.287Z,80.64
2018-02-24T06:07:44.082Z,80.72
2018-02-24T06:10:14.882Z,80.83
2018-02-24T06:12:45.655Z,80.90
2018-02-24T06:15:16.430Z,80.50
2018-02-24T06:17:47.201Z,80.16
2018-02-24T06:20:18.002Z,79.89
2018-02-24T06:22:48.768Z,79.77
2018-02-24T06:25:19.544Z,79.84
2018-02-24T06:27:50.330Z,79.50
2018-02-24T06:30:21.133Z,79.92
2018-02-24T06:32:51.893Z,79.38
2018-02-24T06:35:22.671Z,79.83
2018-02-24T06:37:53.432Z,80.03
2018-02-24T06:40:24.232Z,79.41
2018-02-24T06:42:55.000Z,78.92
2018-02-24T06:45:26.874Z,78.33
2018-02-24T06:47:57.618Z,78.19
2018-02-24T06:50:28.429Z,78.25
2018-02-24T06:52:59.180Z,77.47
2018-02-24T06:55:29.965Z,77.13
2018-02-24T06:58:00.745Z,76.01
2018-02-24T07:00:31.513Z,76.08
2018-02-24T07:03:02.277Z,75.88
2018-02-24T07:05:34.154Z,75.63
2018-02-24T07:08:04.904Z,75.00
2018-02-24T07:10:35.669Z,74.57
2018-02-24T07:13:06.420Z,75.18
2018-02-24T07:15:37.215Z,74.15
2018-02-24T07:18:07.995Z,74.55
2018-02-24T07:20:38.812Z,74.14
2018-02-24T07:23:09.573Z,74.30
2018-02-24T07:25:40.368Z,73.19
2018-02-24T07:28:11.157Z,73.11
2018-02-24T07:30:41.953Z,72.94
2018-02-24T07:33:12.721Z,72.29
2018-02-24T07:35:43.581Z,71.88
2018-02-24T07:38:15.426Z,71.81
2018-02-24T07:40:46.234Z,70.82
2018-02-24T07:43:18.021Z,70.40
2018-02-24T07:45:48.877Z,70.68
2018-02-24T07:48:20.949Z,70.87
2018-02-24T07:50:51.752Z,70.68
2018-02-24T08:08:39.385Z,61.77
2018-02-24T08:11:10.217Z,61.58
2018-02-24T08:13:43.049Z,62.26
2018-02-24T08:16:13.809Z,60.88
2018-02-24T08:18:44.593Z,60.94
2018-02-24T08:21:15.409Z,61.38
2018-02-24T08:23:46.268Z,59.62
2018-02-24T08:26:17.084Z,59.74
2018-02-24T08:31:55.755Z,56.70
2018-02-24T08:34:26.509Z,56.36
2018-02-24T08:36:57.290Z,56.71
2018-02-24T08:39:29.168Z,54.57
2018-02-24T08:41:59.934Z,53.77
2018-02-24T08:44:30.676Z,52.49
2018-02-24T08:47:01.438Z,51.96
2018-02-24T08:49:32.314Z,51.09
2018-02-24T08:52:03.070Z,52.53
2018-02-24T08:54:33.872Z,50.01
2018-02-24T08:57:08.981Z,49.93
2018-02-24T08:59:39.745Z,50.17
2018-02-24T09:02:10.505Z,49.84
2018-02-24T09:04:41.261Z,51.53
2018-02-24T09:07:12.029Z,49.74
2018-02-24T09:09:42.796Z,49.60
2018-02-24T09:12:13.555Z,50.83
2018-02-24T09:14:45.395Z,49.80
2018-02-24T09:17:16.173Z,49.73
2018-02-24T09:19:46.958Z,48.57
2018-02-24T09:22:17.729Z,48.87
2018-02-24T09:24:48.531Z,47.67
2018-02-24T09:27:19.321Z,46.63
2018-02-24T09:29:51.591Z,49.18
2018-02-24T09:32:22.570Z,47.39
2018-02-24T09:34:53.650Z,44.77
2018-02-24T09:37:24.492Z,44.11
2018-02-24T09:39:55.256Z,43.85
2018-02-24T09:42:30.312Z,45.45
2018-02-24T09:45:03.093Z,45.52
2018-02-24T09:47:33.956Z,44.63
2018-02-24T09:50:04.883Z,43.22
2018-02-24T09:52:36.830Z,42.75
2018-02-24T09:55:07.786Z,43.53
2018-02-24T09:57:45.398Z,43.60
2018-02-24T10:00:16.177Z,43.98
2018-02-24T10:02:46.967Z,44.71
2018-02-24T10:05:17.741Z,45.15
2018-02-24T10:07:48.565Z,42.42
2018-02-24T10:10:19.344Z,42.86
2018-02-24T10:12:50.140Z,42.13
2018-02-24T10:15:20.904Z,41.67
2018-02-24T10:17:51.719Z,42.38
2018-02-24T10:20:22.485Z,41.54
2018-02-24T10:22:53.257Z,42.49
2018-02-24T10:25:24.063Z,41.91
2018-02-24T10:27:54.853Z,41.24
2018-02-24T10:30:25.613Z,41.84
2018-02-24T10:32:56.390Z,42.12
2018-02-24T10:35:27.181Z,44.00
2018-02-24T10:37:57.952Z,42.58
2018-02-24T10:40:28.769Z,41.97
2018-02-24T10:42:59.552Z,42.35
2018-02-24T10:45:30.319Z,42.22
2018-02-24T10:48:01.105Z,42.83
2018-02-24T10:50:31.878Z,42.47
2018-02-24T10:53:02.649Z,41.98
2018-02-24T10:55:33.453Z,42.38
2018-02-24T10:58:04.250Z,42.46
2018-02-24T11:00:35.046Z,42.92
2018-02-24T11:03:05.839Z,43.63
2018-02-24T11:05:36.609Z,45.50
2018-02-24T11:08:07.378Z,46.86
2018-02-24T11:10:38.187Z,45.71
2018-02-24T11:13:08.970Z,44.63
2018-02-24T11:15:39.793Z,46.66
2018-02-24T11:18:10.582Z,45.32
2018-02-24T11:20:41.362Z,44.75
2018-02-24T11:23:12.153Z,45.47
2018-02-24T11:25:42.947Z,45.08
2018-02-24T11:28:13.733Z,46.06
2018-02-24T11:30:44.538Z,46.17
2018-02-24T11:33:15.365Z,46.66
2018-02-24T11:35:46.170Z,47.34
2018-02-24T11:38:16.970Z,48.67
2018-02-24T11:40:47.765Z,47.38
2018-02-24T11:43:18.589Z,47.92
2018-02-24T11:45:49.389Z,50.42
2018-02-24T11:48:20.182Z,48.25
2018-02-24T11:50:50.976Z,48.61
2018-02-24T11:53:21.766Z,48.39
2018-02-24T11:55:52.575Z,47.72
2018-02-24T11:58:23.358Z,47.90
2018-02-24T12:00:54.149Z,48.34
2018-02-24T12:03:24.922Z,49.44
2018-02-24T12:05:55.705Z,48.37
2018-02-24T12:08:26.489Z,47.08
2018-02-24T12:10:57.272Z,47.69
2018-02-24T12:13:28.053Z,48.78
2018-02-24T12:15:58.852Z,49.74
2018-02-24T12:18:29.609Z,49.23
2018-02-24T12:21:00.390Z,49.08
2018-02-24T12:23:31.173Z,48.72
2018-02-24T12:26:01.950Z,48.98
2018-02-24T12:28:32.738Z,49.55
2018-02-24T12:31:03.521Z,50.90
2018-02-24T12:33:34.295Z,50.36
2018-02-24T12:36:05.081Z,50.50
2018-02-24T12:38:35.871Z,51.17
2018-02-24T12:41:06.743Z,50.59
2018-02-24T12:43:37.551Z,51.15
2018-02-24T12:46:08.321Z,51.31
2018-02-24T12:48:39.115Z,51.38
2018-02-24T12:51:09.949Z,51.71
2018-02-24T12:53:40.728Z,51.02
2018-02-24T12:56:11.529Z,53.46
2018-02-24T12:58:42.310Z,51.76
2018-02-24T13:01:13.119Z,51.15
2018-02-24T13:03:43.888Z,50.52
2018-02-24T13:06:14.739Z,51.77
2018-02-24T13:08:45.526Z,53.05
2018-02-24T13:11:16.328Z,51.55
2018-02-24T13:13:47.105Z,50.86
2018-02-24T13:16:17.917Z,51.44
2018-02-24T13:18:48.702Z,50.80
2018-02-24T13:21:19.482Z,50.05
2018-02-24T13:23:50.273Z,51.23
2018-02-24T13:26:21.086Z,52.27
2018-02-24T13:28:51.901Z,51.10
2018-02-24T13:31:22.741Z,51.52
2018-02-24T13:33:53.540Z,50.40
2018-02-24T13:36:24.368Z,49.50
2018-02-24T13:38:55.173Z,49.56
2018-02-24T13:41:26.052Z,51.36
2018-02-24T13:43:56.821Z,49.27
2018-02-24T13:46:27.634Z,48.81
2018-02-24T13:48:58.410Z,49.34
2018-02-24T13:51:29.193Z,47.73
2018-02-24T13:53:59.977Z,47.23
2018-02-24T13:56:30.761Z,47.01
2018-02-24T13:59:01.519Z,45.77
2018-02-24T14:01:32.321Z,46.97
2018-02-24T14:04:03.106Z,44.74
2018-02-24T14:06:33.890Z,44.50
2018-02-24T14:09:04.675Z,44.81
2018-02-24T14:11:35.469Z,42.41
2018-02-24T14:14:06.261Z,42.79
2018-02-24T14:16:37.040Z,43.04
2018-02-24T14:19:07.830Z,42.31
2018-02-24T14:21:38.600Z,41.40
2018-02-24T14:24:09.373Z,42.88
2018-02-24T14:26:40.181Z,44.73
2018-02-24T14:29:10.986Z,43.00
2018-02-24T14:31:41.748Z,42.36
2018-02-24T14:34:12.533Z,44.00
2018-02-24T14:36:43.301Z,42.20
2018-02-24T14:39:14.061Z,41.13
2018-02-24T14:41:44.845Z,41.11
2018-02-24T14:44:15.617Z,42.75
2018-02-24T14:46:46.421Z,42.93
2018-02-24T14:49:24.273Z,44.02
2018-02-24T14:51:55.160Z,42.90
2018-02-24T14:54:26.026Z,42.86
2018-02-24T14:56:56.878Z,42.90
2018-02-24T14:59:27.742Z,44.39
2018-02-24T15:02:06.661Z,43.48
2018-02-24T15:04:37.509Z,44.70
2018-02-24T15:07:08.345Z,44.64
2018-02-24T15:09:40.150Z,46.42
2018-02-24T15:12:14.401Z,44.45
2018-02-24T15:14:45.203Z,44.63
2018-02-24T15:17:15.997Z,44.61
2018-02-24T15:19:46.782Z,45.71
2018-02-24T15:22:17.549Z,45.68
2018-02-24T15:24:48.317Z,45.78
2018-02-24T15:27:19.122Z,46.27
2018-02-24T15:29:49.894Z,46.41
2018-02-24T15:32:20.690Z,46.07
2018-02-24T15:34:51.469Z,46.49
2018-02-24T15:37:22.270Z,47.58
2018-02-24T15:39:53.048Z,46.34
2018-02-24T15:42:23.838Z,44.18
2018-02-24T15:44:54.584Z,44.31
2018-02-24T15:47:25.356Z,46.03
2018-02-24T15:49:56.126Z,44.55
2018-02-24T15:52:26.906Z,44.16
2018-02-24T15:54:57.666Z,44.84
2018-02-24T15:57:28.446Z,43.90
2018-02-24T15:59:59.205Z,42.99
2018-02-24T16:02:29.969Z,41.67
2018-02-24T16:05:00.745Z,41.92
2018-02-24T16:07:31.704Z,42.57
2018-02-24T16:10:02.465Z,43.23
2018-02-24T16:12:33.233Z,44.43
2018-02-24T16:15:03.991Z,43.66
2018-02-24T16:17:34.776Z,42.96
2018-02-24T16:20:05.525Z,44.48
2018-02-24T16:22:36.313Z,43.29
2018-02-24T16:25:07.081Z,43.78
2018-02-24T16:27:37.886Z,43.51
2018-02-24T16:30:08.660Z,44.74
2018-02-24T16:32:39.445Z,44.07
2018-02-24T16:35:10.220Z,43.58
2018-02-24T16:37:40.974Z,43.37
2018-02-24T16:40:11.739Z,44.01
2018-02-24T16:42:42.501Z,44.60
2018-02-24T16:45:13.263Z,43.58
2018-02-24T16:47:44.013Z,43.80
2018-02-24T16:50:14.770Z,43.56
2018-02-24T16:52:45.531Z,44.25
2018-02-24T16:55:16.276Z,44.13
2018-02-24T16:57:47.038Z,44.37
2018-02-24T17:00:17.787Z,45.29
2018-02-24T17:02:48.557Z,44.39
2018-02-24T17:05:19.314Z,44.79
2018-02-24T17:07:50.076Z,45.22
2018-02-24T17:10:20.841Z,44.90
2018-02-24T17:12:51.605Z,45.14
2018-02-24T17:15:22.354Z,45.70
2018-02-24T17:17:53.115Z,47.65
2018-02-24T17:20:23.877Z,45.89
2018-02-24T17:22:54.680Z,47.01
2018-02-24T17:25:25.426Z,47.74
2018-02-24T17:27:56.177Z,46.33
2018-02-24T17:30:26.955Z,46.83
2018-02-24T17:32:57.718Z,48.25
2018-02-24T17:35:28.489Z,47.45
2018-02-24T17:37:59.298Z,47.16
2018-02-24T17:40:30.131Z,47.28
2018-02-24T17:43:00.870Z,47.80
2018-02-24T17:45:31.630Z,48.72
2018-02-24T17:48:02.397Z,49.91
2018-02-24T17:50:33.159Z,48.47
2018-02-24T17:53:03.965Z,48.21
2018-02-24T17:55:34.754Z,48.58
2018-02-24T17:58:05.556Z,49.17
2018-02-24T18:00:36.333Z,48.64
2018-02-24T18:03:07.125Z,49.04
2018-02-24T18:05:37.885Z,49.89
2018-02-24T18:08:08.663Z,49.67
2018-02-24T18:10:39.426Z,50.21
2018-02-24T18:13:10.198Z,50.37
2018-02-24T18:15:40.951Z,50.44
2018-02-24T18:18:11.744Z,50.51
2018-02-24T18:20:42.512Z,51.63
2018-02-24T18:23:13.269Z,50.98
2018-02-24T18:25:44.004Z,51.78
2018-02-24T18:28:14.793Z,52.23
2018-02-24T18:30:45.578Z,52.42
2018-02-24T18:33:16.357Z,52.83
2018-02-24T18:35:47.101Z,53.63
2018-02-24T18:38:17.869Z,53.51
2018-02-24T18:40:48.628Z,53.58
2018-02-24T18:43:19.414Z,53.77
2018-02-24T18:45:50.213Z,53.99
2018-02-24T18:48:21.025Z,53.31
2018-02-24T18:50:51.793Z,53.97
2018-02-24T18:53:22.561Z,54.09
2018-02-24T18:55:53.326Z,53.61
2018-02-24T18:58:24.113Z,53.75
2018-02-24T19:00:54.882Z,53.97
2018-02-24T19:03:25.653Z,54.89
2018-02-24T19:05:56.470Z,54.93
2018-02-24T19:08:27.209Z,54.64
2018-02-24T19:10:57.985Z,54.05
2018-02-24T19:13:28.733Z,55.61
2018-02-24T19:15:59.511Z,54.34
2018-02-24T19:18:30.298Z,54.71
2018-02-24T19:21:01.079Z,56.09
2018-02-24T19:23:31.870Z,55.08
2018-02-24T19:26:02.681Z,55.84
2018-02-24T19:28:33.448Z,55.23
2018-02-24T19:31:04.209Z,55.46
2018-02-24T19:33:34.998Z,55.60
2018-02-24T19:36:05.769Z,56.35
2018-02-24T19:38:36.537Z,56.47
2018-02-24T19:41:07.294Z,57.58
2018-02-24T19:43:38.074Z,56.29
2018-02-24T19:46:08.835Z,56.04
2018-02-24T19:48:46.629Z,56.71
2018-02-24T19:51:17.402Z,56.80
2018-02-24T19:53:48.198Z,57.29
2018-02-24T19:56:20.066Z,56.95
2018-02-24T19:58:50.870Z,56.78
2018-02-24T20:01:21.645Z,56.76
2018-02-24T20:03:52.509Z,57.60
2018-02-24T20:06:23.394Z,57.50
2018-02-24T20:08:54.213Z,57.06
2018-02-24T20:11:24.992Z,57.01
2018-02-24T20:13:55.851Z,57.84
2018-02-24T20:16:26.637Z,57.64
2018-02-24T20:18:57.530Z,57.53
2018-02-24T20:21:28.298Z,57.26
2018-02-24T20:23:59.071Z,55.80
2018-02-24T20:26:29.822Z,55.82
2018-02-24T20:29:00.602Z,55.87
2018-02-24T20:31:31.370Z,56.93
2018-02-24T20:34:02.137Z,56.29
2018-02-24T20:36:32.902Z,56.45
2018-02-24T20:39:03.702Z,56.54
2018-02-24T20:41:34.499Z,56.51
2018-02-24T20:44:05.280Z,57.37
2018-02-24T20:46:36.084Z,56.92
2018-02-24T20:49:06.930Z,57.37
2018-02-24T20:51:37.694Z,57.01
2018-02-24T20:54:08.458Z,56.81
2018-02-24T20:56:39.221Z,56.70
2018-02-24T20:59:10.002Z,56.96
2018-02-24T21:01:40.775Z,56.66
2018-02-24T21:04:11.566Z,56.78
2018-02-24T21:06:42.342Z,56.41
2018-02-24T21:09:13.113Z,56.32
2018-02-24T21:11:43.865Z,56.59
2018-02-24T21:14:14.665Z,56.48
2018-02-24T21:16:45.431Z,57.07
2018-02-24T21:19:20.150Z,57.67
2018-02-24T21:21:50.958Z,57.32
2018-02-24T21:24:21.750Z,57.08
2018-02-24T21:26:52.524Z,58.47
2018-02-24T21:29:23.334Z,57.76
2018-02-24T21:31:54.106Z,57.19
2018-02-24T21:34:24.890Z,57.29
2018-02-24T21:36:55.667Z,57.41
2018-02-24T21:39:26.450Z,57.05
2018-02-24T21:41:57.236Z,56.92
2018-02-24T21:44:28.028Z,57.53
2018-02-24T21:46:58.807Z,57.59
2018-02-24T21:49:29.577Z,57.47
2018-02-24T21:52:00.337Z,57.52
2018-02-24T21:54:31.142Z,59.13
2018-02-24T21:57:01.942Z,58.99
2018-02-24T21:59:32.740Z,58.42
2018-02-24T22:02:03.525Z,58.49
2018-02-24T22:04:34.350Z,58.67
2018-02-24T22:07:05.106Z,58.41
2018-02-24T22:09:35.885Z,58.50
2018-02-24T22:12:06.662Z,59.16
2018-02-24T22:14:37.454Z,60.24
2018-02-24T22:17:08.242Z,59.60
2018-02-24T22:19:39.026Z,59.79
2018-02-24T22:22:09.797Z,59.83
2018-02-24T22:24:40.623Z,59.85
2018-02-24T22:27:11.431Z,60.38
2018-02-24T22:29:42.218Z,60.85
2018-02-24T22:32:12.989Z,60.03
2018-02-24T22:34:43.768Z,60.16
2018-02-24T22:37:14.549Z,59.35
2018-02-24T22:39:45.334Z,59.94
2018-02-24T22:42:16.125Z,59.95
2018-02-24T22:44:46.921Z,60.08
2018-02-24T22:47:17.690Z,60.53
2018-02-24T22:49:48.492Z,59.54
2018-02-24T22:52:19.257Z,59.91
2018-02-24T22:54:50.063Z,59.32
2018-02-24T22:57:20.842Z,60.32
2018-02-24T22:59:51.633Z,59.80
2018-02-24T23:02:22.418Z,59.06
2018-02-24T23:04:53.229Z,58.86
2018-02-24T23:07:24.034Z,59.14
2018-02-24T23:09:54.854Z,58.67
2018-02-24T23:12:25.705Z,59.44
2018-02-24T23:14:56.494Z,59.02
2018-02-24T23:17:27.269Z,59.30
2018-02-24T23:20:05.025Z,58.80
2018-02-24T23:22:35.781Z,58.76
2018-02-24T23:25:06.581Z,58.71
2018-02-24T23:27:37.349Z,59.10
2018-02-24T23:30:08.134Z,59.40
2018-02-24T23:32:38.925Z,58.88
2018-02-24T23:35:09.715Z,58.99
2018-02-24T23:37:40.497Z,59.06
2018-02-24T23:40:11.286Z,59.83
2018-02-24T23:42:42.132Z,60.30
2018-02-24T23:45:12.898Z,60.45
2018-02-24T23:47:43.690Z,60.50
2018-02-24T23:50:14.473Z,59.45
2018-02-24T23:52:45.265Z,59.90
2018-02-24T23:55:16.047Z,60.55
2018-02-24T23:57:46.905Z,60.03
